Latest Weather Observations for Cape Nelson

IDV60801

Issued at 4:42 pm EDT Thursday 28 January 2021 (issued every 10 minutes, with the page automatically refreshed every 10 minutes)

About weather observations | Map of weather stations | Latest weather observations for VIC | Other Formats
Station Details ID: 090184 Name: CAPE NELSON LIGHTHOUSE Lat: -38.43 Lon: 141.54 Height: 45.4 m
Data from the previous 72 hours. | See also: Recent months at Cape Nelson
Date/Time
EDT
Temp
°C
App
Temp
°C
Dew
Point
°C
Rel
Hum
%
Delta-T
°C
Wind Press
QNH
hPa
Press
MSL
hPa
Rain since
9am
mm
Dir  Spd
km/h
Gust
km/h
Spd
kts
Gust
kts
28/04:30pm 18.2 12.2 15.5 84 1.6 E 41 54 22 29 1012.1 1012.0 0.0
28/04:00pm 18.3 11.7 15.4 83 1.7 E 44 54 24 29 1012.3 1012.2 0.0
28/03:30pm 18.8 12.5 15.7 82 1.8 E 43 54 23 29 1012.8 1012.7 0.0
28/03:00pm 19.5 13.1 16.0 80 2.1 E 44 57 24 31 1013.3 1013.2 0.0
28/02:30pm 18.7 12.4 15.6 82 1.8 E 43 52 23 28 1013.7 1013.6 0.0
28/02:00pm 19.4 13.5 15.7 79 2.2 E 41 48 22 26 1014.3 1014.2 0.0
28/01:30pm 18.1 12.1 15.5 85 1.5 E 41 50 22 27 1014.6 1014.5 0.0
28/01:00pm 17.8 12.5 15.4 86 1.4 E 37 46 20 25 1014.9 1014.8 0.0
28/12:30pm 18.1 16.1 15.4 84 1.6 E 20 33 11 18 1015.1 1015.0 0.0
28/12:00pm 18.3 13.7 15.0 81 1.9 E 33 41 18 22 1015.0 1014.9 0.0
28/11:30am 19.6 14.1 14.8 74 2.8 E 37 46 20 25 1015.1 1015.0 0.0
28/11:00am 19.3 14.9 15.2 77 2.4 E 32 39 17 21 1015.9 1015.8 0.0
28/10:30am 19.2 15.5 14.9 76 2.5 E 28 35 15 19 1016.3 1016.2 0.0
28/10:00am 18.1 14.5 14.2 78 2.2 ENE 26 35 14 19 1016.4 1016.3 0.0
28/09:30am 18.1 13.2 13.8 76 2.5 ENE 32 48 17 26 1016.3 1016.2 0.0
28/09:00am 17.3 12.4 13.6 79 2.1 ENE 32 50 17 27 1016.1 1016.0 0.0
28/08:44am 17.2 12.2 13.3 78 2.2 ENE 32 50 17 27 1015.8 1015.7 0.0
28/08:30am 17.2 12.1 13.1 77 2.3 ENE 32 44 17 24 1015.8 1015.7 0.0
28/08:00am 17.2 11.9 13.1 77 2.3 ENE 33 54 18 29 1015.7 1015.6 0.0
28/07:45am 17.1 11.4 13.0 77 2.3 ENE 35 54 19 29 1015.4 1015.3 0.0
28/07:30am 17.1 11.0 13.0 77 2.3 ENE 37 52 20 28 1015.5 1015.4 0.0
28/07:00am 17.0 11.4 13.3 79 2.1 ENE 35 48 19 26 1015.3 1015.2 0.0
28/06:32am 17.0 10.9 13.1 78 2.2 ENE 37 56 20 30 1015.1 1015.0 0.0
28/06:30am 17.0 10.2 13.1 78 2.2 ENE 41 56 22 30 1015.0 1014.9 0.0
28/06:00am 16.9 9.9 14.2 84 1.5 E 44 54 24 29 1014.7 1014.6 0.0
28/05:30am 16.9 9.9 14.2 84 1.5 E 44 54 24 29 1015.0 1014.9 0.0
28/05:00am 16.9 10.1 14.2 84 1.5 E 43 52 23 28 1015.1 1015.0 0.0
28/04:30am 16.9 10.9 14.4 85 1.4 E 39 50 21 27 1015.2 1015.1 0.0
28/04:00am 16.8 11.2 14.4 86 1.4 E 37 48 20 26 1015.7 1015.6 0.0
28/03:30am 16.9 11.3 14.4 85 1.4 E 37 48 20 26 1015.7 1015.6 0.0
28/03:00am 16.9 12.3 14.5 86 1.4 E 32 43 17 23 1016.0 1015.9 0.0
28/02:30am 16.9 12.1 14.7 87 1.3 E 33 44 18 24 1016.0 1015.9 0.0
28/02:00am 16.8 10.9 14.8 88 1.2 E 39 50 21 27 1016.1 1016.0 0.0
28/01:30am 16.7 10.0 14.7 88 1.2 E 43 56 23 30 1016.1 1016.0 0.0
28/01:00am 16.8 10.1 14.6 87 1.3 E 43 56 23 30 1016.1 1016.0 0.0
28/12:30am 16.8 9.5 14.6 87 1.3 E 46 61 25 33 1016.0 1015.9 0.0
28/12:00am 16.8 9.5 14.4 86 1.4 E 46 59 25 32 1016.2 1016.1 0.0
 
Date/Time
EDT
Temp
°C
App
Temp
°C
Dew
Point
°C
Rel
Hum
%
Delta-T
°C
Wind Press
QNH
hPa
Press
MSL
hPa
Rain since
9am
mm
Dir  Spd
km/h
Gust
km/h
Spd
kts
Gust
kts
27/11:30pm 16.8 9.1 14.4 86 1.4 E 48 57 26 31 1016.4 1016.3 0.0
27/11:00pm 16.8 9.1 14.4 86 1.4 E 48 61 26 33 1016.8 1016.7 0.0
27/10:30pm 16.8 10.0 14.3 85 1.4 E 43 56 23 30 1016.9 1016.8 0.0
27/10:00pm 16.9 10.0 14.4 85 1.4 E 44 63 24 34 1016.9 1016.8 0.0
27/09:57pm 16.8 9.7 14.1 84 1.5 E 44 63 24 34 1016.9 1016.8 0.0
27/09:30pm 16.8 10.0 14.3 85 1.4 E 43 59 23 32 1016.4 1016.3 0.0
27/09:00pm 16.7 12.1 14.5 87 1.3 E 32 48 17 26 1016.7 1016.6 0.0
27/08:39pm 16.6 11.8 14.1 85 1.4 E 32 50 17 27 1016.8 1016.7 0.0
27/08:30pm 16.5 11.4 13.8 84 1.5 E 33 48 18 26 1016.9 1016.8 0.0
27/08:02pm 16.5 11.4 13.2 81 1.8 E 32 50 17 27 1016.3 1016.2 0.0
27/08:00pm 16.5 11.2 13.2 81 1.8 E 33 50 18 27 1016.3 1016.2 0.0
27/07:37pm 16.2 10.6 12.2 77 2.2 E 33 52 18 28 1015.9 1015.8 0.0
27/07:30pm 16.3 10.0 12.3 77 2.2 E 37 52 20 28 1015.8 1015.7 0.0
27/07:03pm 16.3 10.6 11.9 75 2.4 E 33 52 18 28 1015.7 1015.6 0.0
27/07:00pm 16.3 10.2 11.9 75 2.4 E 35 52 19 28 1015.7 1015.6 0.0
27/06:30pm 16.3 10.4 11.2 72 2.7 ESE 33 54 18 29 1016.0 1015.9 0.0
27/06:00pm 16.0 9.9 9.9 67 3.2 E 32 52 17 28 1016.1 1016.0 0.0
27/05:30pm 16.1 10.6 9.3 64 3.5 ESE 28 50 15 27 1016.3 1016.2 0.0
27/05:00pm 16.6 10.7 10.5 67 3.2 ESE 32 50 17 27 1016.5 1016.4 0.0
27/04:31pm 16.7 10.9 9.4 62 3.8 ESE 30 50 16 27 1017.2 1017.1 0.0
27/04:30pm 16.7 10.9 9.4 62 3.8 ESE 30 46 16 25 1017.2 1017.1 0.0
27/04:00pm 17.2 11.1 9.9 62 3.8 E 32 52 17 28 1017.4 1017.3 0.0
27/03:45pm 16.9 11.0 9.1 60 4.0 E 30 48 16 26 1017.5 1017.4 0.0
27/03:30pm 16.8 10.4 9.5 62 3.8 E 33 44 18 24 1017.6 1017.5 0.0
27/03:12pm 16.6 11.4 10.2 66 3.4 E 28 46 15 25 1017.9 1017.8 0.0
27/03:00pm 16.8 10.0 9.2 61 3.9 E 35 50 19 27 1017.9 1017.8 0.0
27/02:41pm 16.6 9.2 8.3 58 4.2 E 37 56 20 30 1017.7 1017.6 0.0
27/02:30pm 16.4 10.1 8.9 61 3.9 E 32 48 17 26 1017.7 1017.6 0.0
27/02:07pm 16.3 10.3 8.5 60 4.0 E 30 48 16 26 1017.8 1017.7 0.0
27/02:00pm 16.3 9.3 8.5 60 4.0 E 35 48 19 26 1017.8 1017.7 0.0
27/01:47pm 16.1 10.3 9.3 64 3.5 E 30 48 16 26 1018.0 1017.9 0.0
27/01:30pm 16.2 10.1 9.6 65 3.4 E 32 46 17 25 1017.9 1017.8 0.0
27/01:00pm 16.0 8.1 7.7 58 4.2 E 39 52 21 28 1017.8 1017.7 0.0
27/12:30pm 15.7 8.9 9.1 65 3.4 E 35 48 19 26 1018.2 1018.1 0.0
27/12:23pm 16.0 9.4 8.5 61 3.8 E 33 52 18 28 1018.3 1018.2 0.0
27/12:00pm 16.2 7.4 7.4 56 4.4 E 43 56 23 30 1018.1 1018.0 0.0
27/11:30am 15.3 8.8 8.3 63 3.5 ESE 32 54 17 29 1018.3 1018.2 0.0
27/11:27am 15.3 8.7 7.8 61 3.8 ESE 32 54 17 29 1018.3 1018.2 0.0
27/11:00am 15.2 9.5 8.2 63 3.5 E 28 41 15 22 1018.4 1018.3 0.0
27/10:30am 15.2 9.8 8.2 63 3.5 ESE 26 43 14 23 1018.2 1018.1 0.0
27/10:00am 15.2 8.9 7.3 59 3.9 E 30 44 16 24 1017.8 1017.7 0.0
27/09:32am 14.9 8.3 7.9 63 3.5 E 32 50 17 27 1017.3 1017.2 0.0
27/09:30am 15.0 8.8 8.0 63 3.5 E 30 43 16 23 1017.3 1017.2 0.0
27/09:16am 15.0 9.2 7.8 62 3.6 E 28 46 15 25 1017.3 1017.2 0.0
27/09:00am 14.9 7.3 7.7 62 3.6 E 37 50 20 27 1017.0 1016.9 0.0
27/08:30am 14.5 7.3 5.8 56 4.1 E 33 46 18 25 1017.1 1017.0 0.0
27/08:09am 14.5 8.6 7.3 62 3.5 ESE 28 46 15 25 1016.8 1016.7 0.0
27/08:00am 14.6 9.1 7.4 62 3.5 ESE 26 43 14 23 1016.7 1016.6 0.0
27/07:30am 14.4 7.6 7.0 61 3.6 ESE 32 46 17 25 1016.5 1016.4 0.0
27/07:26am 14.4 8.3 6.5 59 3.8 ESE 28 46 15 25 1016.5 1016.4 0.0
27/07:00am 14.3 8.0 7.4 63 3.4 ESE 30 43 16 23 1016.3 1016.2 0.0
27/06:30am 13.9 8.1 6.3 60 3.6 ESE 26 39 14 21 1016.2 1016.1 0.0
27/06:00am 14.0 8.7 6.8 62 3.5 ESE 24 39 13 21 1016.1 1016.0 0.0
27/05:36am 14.2 8.2 7.0 62 3.5 ESE 28 46 15 25 1015.4 1015.3 0.0
27/05:30am 14.2 8.9 7.0 62 3.5 ESE 24 39 13 21 1015.3 1015.2 0.0
27/05:00am 13.6 8.4 5.7 59 3.7 E 22 32 12 17 1015.4 1015.3 0.0
27/04:30am 14.0 7.5 6.6 61 3.6 ESE 30 44 16 24 1015.0 1014.9 0.0
27/04:00am 14.1 8.9 7.4 64 3.3 ESE 24 37 13 20 1014.9 1014.8 0.0
27/03:30am 13.7 7.4 5.8 59 3.7 ESE 28 44 15 24 1015.0 1014.9 0.0
27/03:24am 13.7 7.4 5.8 59 3.7 ESE 28 46 15 25 1015.0 1014.9 0.0
27/03:00am 13.7 7.1 6.1 60 3.6 ESE 30 43 16 23 1014.9 1014.8 0.0
27/02:30am 13.4 6.6 5.1 57 3.9 ESE 30 44 16 24 1014.9 1014.8 0.0
27/02:18am 13.7 6.3 6.6 62 3.4 SE 35 54 19 29 1014.9 1014.8 0.0
27/02:00am 14.0 6.8 7.8 66 3.1 SE 35 46 19 25 1014.7 1014.6 0.0
27/01:30am 14.1 6.6 6.2 59 3.8 SE 35 46 19 25 1014.7 1014.6 0.0
27/01:00am 14.2 6.9 7.3 63 3.4 SE 35 44 19 24 1014.8 1014.7 0.0
27/12:30am 14.0 9.5 7.1 63 3.4 ESE 20 33 11 18 1014.8 1014.7 0.0
27/12:00am 13.9 6.9 6.0 59 3.8 ESE 32 44 17 24 1014.7 1014.6 0.0
 
Date/Time
EDT
Temp
°C
App
Temp
°C
Dew
Point
°C
Rel
Hum
%
Delta-T
°C
Wind Press
QNH
hPa
Press
MSL
hPa
Rain since
9am
mm
Dir  Spd
km/h
Gust
km/h
Spd
kts
Gust
kts
26/11:30pm 14.1 8.3 7.9 66 3.1 SE 28 37 15 20 1014.6 1014.5 0.0
26/11:00pm 13.7 6.5 6.1 60 3.6 SE 33 43 18 23 1014.4 1014.3 0.0
26/10:30pm 14.1 7.3 6.9 62 3.5 SE 32 43 17 23 1014.3 1014.2 0.0
26/10:00pm 14.3 7.3 8.3 67 3.0 SE 35 43 19 23 1013.7 1013.6 0.0
26/09:30pm 14.4 7.8 7.9 65 3.2 SE 32 39 17 21 1013.5 1013.4 0.0
26/09:00pm 14.4 8.0 8.4 67 3.0 SE 32 37 17 20 1012.7 1012.6 0.0
26/08:30pm 14.5 8.0 8.2 66 3.2 SE 32 41 17 22 1012.6 1012.5 0.0
26/08:00pm 14.8 8.6 9.2 69 2.9 SE 32 43 17 23 1012.0 1011.9 0.0
26/07:30pm 15.1 8.8 8.8 66 3.2 SE 32 43 17 23 1011.3 1011.2 0.0
26/07:00pm 15.3 8.4 8.8 65 3.3 SE 35 44 19 24 1010.9 1010.8 0.0
26/06:30pm 15.7 9.0 9.6 67 3.2 SE 35 48 19 26 1010.4 1010.3 0.0
26/06:00pm 16.0 9.5 10.3 69 3.0 SE 35 44 19 24 1010.1 1010.0 0.0
26/05:30pm 16.4 9.9 10.5 68 3.1 SSE 35 46 19 25 1009.9 1009.8 0.0
26/05:00pm 16.2 10.1 10.5 69 3.0 SSE 33 44 18 24 1009.6 1009.5 0.0
26/04:30pm 16.3 10.4 11.0 71 2.8 SSE 33 44 18 24 1009.6 1009.5 0.0
26/04:00pm 16.5 10.6 11.2 71 2.9 SSE 33 43 18 23 1009.3 1009.2 0.0
26/03:30pm 17.1 11.4 11.2 68 3.2 SSE 32 43 17 23 1008.9 1008.8 0.0
26/03:00pm 17.0 11.1 12.5 75 2.5 SSE 35 44 19 24 1008.7 1008.6 0.0
26/02:30pm 16.5 11.0 12.5 77 2.2 SSE 33 43 18 23 1008.6 1008.5 0.0
26/02:00pm 17.8 12.7 13.1 74 2.7 SSE 32 39 17 21 1008.2 1008.1 0.0
26/01:30pm 17.4 12.8 12.3 72 2.8 SSE 28 37 15 20 1007.8 1007.7 0.0
26/01:00pm 18.2 14.5 12.6 70 3.1 SSE 24 33 13 18 1007.7 1007.6 0.0
26/12:30pm 17.8 13.8 11.8 68 3.3 SSE 24 35 13 19 1007.7 1007.6 0.0
26/12:00pm 18.3 14.0 13.2 72 2.9 S 28 35 15 19 1007.2 1007.1 0.0
26/11:30am 17.6 14.6 12.1 70 3.0 SSE 19 30 10 16 1006.7 1006.6 0.0
26/11:00am 17.5 14.4 11.5 68 3.3 SSE 19 35 10 19 1006.4 1006.2 0.0
26/10:30am 16.8 14.1 10.4 66 3.4 NE 15 20 8 11 1006.0 1005.8 0.0
26/10:00am 16.5 13.7 11.2 71 2.9 SSE 17 28 9 15 1005.6 1005.4 0.0
26/09:30am 16.4 11.7 12.0 75 2.4 SSE 28 43 15 23 1005.2 1005.0 0.0
26/09:00am 16.1 11.7 11.7 75 2.4 SSE 26 39 14 21 1004.6 1004.4 19.0
26/08:30am 16.2 10.9 13.1 82 1.7 S 33 43 18 23 1004.2 1004.0 19.0
26/08:00am 16.1 11.8 13.2 83 1.6 SSE 28 39 15 21 1003.8 1003.7 19.0
26/07:30am 16.3 14.1 14.5 89 1.0 SSE 19 30 10 16 1003.3 1003.2 19.0
26/07:00am 16.1 14.8 13.6 85 1.4 SSE 13 19 7 10 1002.9 1002.8 19.0
26/06:30am 16.1 13.5 13.8 86 1.3 SSE 20 37 11 20 1002.4 1002.3 19.0
26/06:00am 16.2 13.7 14.0 87 1.3 SSE 20 32 11 17 1002.2 1002.1 19.0
26/05:30am 16.1 13.9 14.5 90 0.9 SSE 19 30 10 16 1001.5 1001.4 19.0
26/05:00am 16.1 14.8 14.8 92 0.8 SE 15 28 8 15 1001.0 1000.9 19.0
26/04:30am 16.2 14.3 15.1 93 0.6 SSE 19 32 10 17 1001.0 1000.9 19.0
26/04:00am 16.2 14.2 15.4 95 0.5 SSE 20 32 11 17 1000.7 1000.6 19.0
26/03:30am 16.3 14.6 15.7 96 0.4 SSE 19 32 10 17 1000.8 1000.7 19.0
26/03:00am 16.0 14.6 15.5 97 0.3 SSE 17 24 9 13 1000.9 1000.8 19.0
26/02:30am 16.0 14.1 15.8 99 0.1 SSE 20 32 11 17 1000.9 1000.8 18.8
26/02:00am 16.2 15.0 16.0 99 0.1 SE 17 28 9 15 1000.8 1000.7 18.8
26/01:30am 17.0 15.7 16.8 99 0.1 S 19 24 10 13 1000.8 1000.7 18.2
26/01:00am 17.1 16.2 16.9 99 0.1 S 17 20 9 11 1000.6 1000.5 18.0
26/12:30am 17.1 17.0 16.9 99 0.1 S 13 17 7 9 1000.4 1000.3 17.8
26/12:00am 17.2 17.5 17.0 99 0.1 SSE 11 19 6 10 1000.3 1000.2 17.4
 
Date/Time
EDT
Temp
°C
App
Temp
°C
Dew
Point
°C
Rel
Hum
%
Delta-T
°C
Wind Press
QNH
hPa
Press
MSL
hPa
Rain since
9am
mm
Dir  Spd
km/h
Gust
km/h
Spd
kts
Gust
kts
25/11:30pm 17.4 19.9 17.2 99 0.1 CALM 0 0 0 0 1000.3 1000.2 17.2
25/11:00pm 17.3 18.0 17.1 99 0.1 S 9 13 5 7 1000.2 1000.1 17.0
25/10:30pm 17.2 19.6 17.0 99 0.1 CALM 0 6 0 3 1000.2 1000.1 16.8
25/10:00pm 17.2 17.5 17.0 99 0.1 NE 11 13 6 7 1000.3 1000.2 16.6
25/09:30pm 17.2 17.1 16.9 98 0.2 NE 13 15 7 8 1000.2 1000.1 16.2
25/09:00pm 17.2 17.8 16.9 98 0.2 ENE 9 13 5 7 1000.0 999.9 15.2
25/08:30pm 17.3 19.3 17.0 98 0.2 E 2 6 1 3 1000.0 999.9 13.8
25/08:00pm 17.3 18.4 17.0 98 0.2 NE 7 11 4 6 999.9 999.8 13.6
25/07:30pm 17.2 16.6 16.7 97 0.3 NE 15 20 8 11 999.7 999.6 11.8
25/07:00pm 17.4 16.9 16.9 97 0.3 NE 15 20 8 11 999.2 999.1 9.6
25/06:30pm 17.4 16.9 16.9 97 0.3 NE 15 20 8 11 999.0 998.9 9.6
25/06:00pm 17.4 16.9 16.8 96 0.4 NE 15 19 8 10 1000.1 1000.0 9.2
25/05:30pm 17.3 17.0 16.5 95 0.5 E 13 17 7 9 999.9 999.8 7.6
25/05:00pm 17.8 18.1 17.0 95 0.5 E 11 17 6 9 1000.5 1000.4 5.0

Other formats

Comma delimited format used in spreadsheet applications
http://www.bom.gov.au/fwo/IDV60801/IDV60801.94826.axf

JavaScript Object Notation format (JSON) in row-major order
http://www.bom.gov.au/fwo/IDV60801/IDV60801.94826.json

Data quality

Most of these data are generated automatically and are frequently updated. Quality checks on data are not normally performed. It is possible for incorrect values to appear. Refer to information at About Latest Weather Observations and please check the disclaimer before using these data.